Time;durP1;ratioP1;P1;durP2;ratioP2;P2;SDS_P1;SDS_P2;PMS_P1;PMS_P2;Temp;Humidity;BMP_temperature;BMP_pressure;BME280_temperature;BME280_humidity;BME280_pressure;Samples;Min_cycle;Max_cycle;Signal;HPM_P1;HPM_P2
2023/03/12 00:00:16;;;;;;;9.63;6.80;;;0.00;99.90;;;;;;4959397;28;87654;-29
2023/03/12 00:02:41;;;;;;;17.80;9.07;;;0.00;99.90;;;;;;4970123;28;89282;-27
2023/03/12 00:05:07;;;;;;;9.48;7.82;;;0.00;99.90;;;;;;4961858;28;90776;-28
2023/03/12 00:07:35;;;;;;;13.13;8.43;;;0.00;99.90;;;;;;4960444;28;89462;-32
2023/03/12 00:10:02;;;;;;;6.60;5.85;;;0.00;99.90;;;;;;4959827;28;89184;-31
2023/03/12 00:12:27;;;;;;;8.82;7.70;;;0.00;99.90;;;;;;4959864;28;90157;-30
2023/03/12 00:14:53;;;;;;;20.52;8.60;;;0.00;99.90;;;;;;4959837;28;89884;-29
2023/03/12 00:17:19;;;;;;;12.65;9.05;;;0.00;99.90;;;;;;4959901;28;90218;-27
2023/03/12 00:19:44;;;;;;;13.73;6.90;;;0.00;99.90;;;;;;4960114;28;89788;-30
2023/03/12 00:22:10;;;;;;;8.50;6.47;;;0.00;99.90;;;;;;4958586;28;90186;-30
2023/03/12 00:24:35;;;;;;;12.05;6.20;;;0.00;99.90;;;;;;4971522;28;89915;-29
2023/03/12 00:27:01;;;;;;;10.25;5.80;;;0.00;99.90;;;;;;4966758;28;89447;-29
2023/03/12 00:29:26;;;;;;;10.05;6.82;;;0.00;99.90;;;;;;4960393;28;89217;-30
2023/03/12 00:31:53;;;;;;;10.95;5.40;;;0.00;99.90;;;;;;4972230;28;90279;-29
2023/03/12 00:34:18;;;;;;;8.32;6.47;;;0.00;99.90;;;;;;4957992;28;89580;-31
2023/03/12 00:36:44;;;;;;;8.27;6.53;;;0.00;99.90;;;;;;4965156;28;91037;-27
2023/03/12 00:39:09;;;;;;;10.98;5.32;;;0.00;99.90;;;;;;4978161;28;88946;-29
2023/03/12 00:41:35;;;;;;;13.70;6.72;;;0.00;99.90;;;;;;4971774;28;90355;-28
2023/03/12 00:44:01;;;;;;;8.48;6.40;;;0.00;99.90;;;;;;4958957;28;89814;-30
2023/03/12 00:46:26;;;;;;;13.25;5.03;;;0.00;99.90;;;;;;4977936;28;90354;-28
2023/03/12 00:48:52;;;;;;;9.50;4.97;;;0.00;99.90;;;;;;4978383;28;89155;-29
2023/03/12 00:51:18;;;;;;;9.85;5.32;;;0.00;99.90;;;;;;4967153;28;90178;-31
2023/03/12 00:53:44;;;;;;;6.22;5.60;;;0.00;99.90;;;;;;4958885;28;89518;-29
2023/03/12 00:56:10;;;;;;;11.98;6.10;;;0.00;99.90;;;;;;4958542;28;89177;-31
2023/03/12 00:58:35;;;;;;;11.27;5.53;;;0.00;99.90;;;;;;4971917;28;89869;-32
2023/03/12 01:01:01;;;;;;;8.75;4.82;;;0.00;99.90;;;;;;4967122;28;90353;-31
2023/03/12 01:03:27;;;;;;;8.45;5.28;;;0.00;99.90;;;;;;4977586;28;89499;-31
2023/03/12 01:05:55;;;;;;;8.52;5.22;;;0.00;99.90;;;;;;4978349;28;89559;-30
2023/03/12 01:08:21;;;;;;;;;;;0.00;99.90;;;;;;4977973;28;88995;-29
2023/03/12 01:10:47;;;;;;;7.47;4.55;;;0.00;99.90;;;;;;4978471;28;90241;-28
2023/03/12 01:13:13;;;;;;;9.35;5.10;;;0.00;99.90;;;;;;4959568;28;89738;-30
2023/03/12 01:15:38;;;;;;;7.03;4.30;;;0.00;99.90;;;;;;4978470;28;87953;-31
2023/03/12 01:18:04;;;;;;;10.48;4.45;;;0.00;99.90;;;;;;4960758;28;90288;-32
2023/03/12 01:20:29;;;;;;;4.82;4.18;;;0.00;99.90;;;;;;4965696;28;90690;-28
2023/03/12 01:22:55;;;;;;;10.73;6.63;;;0.00;99.90;;;;;;4975515;28;90679;-28
2023/03/12 01:25:21;;;;;;;14.77;4.60;;;0.00;99.90;;;;;;4979592;28;91420;-29
2023/03/12 01:27:46;;;;;;;9.88;4.63;;;0.00;99.90;;;;;;4979888;28;88105;-27
2023/03/12 01:30:12;;;;;;;7.72;5.03;;;0.00;99.90;;;;;;4962500;28;90224;-30
2023/03/12 01:32:38;;;;;;;6.13;4.85;;;0.00;99.90;;;;;;4943853;28;89266;-31
2023/03/12 01:35:04;;;;;;;6.03;4.97;;;0.00;99.90;;;;;;4961235;28;89790;-30
2023/03/12 01:37:31;;;;;;;6.20;4.75;;;-0.10;99.90;;;;;;4961553;28;88141;-27
2023/03/12 01:39:57;;;;;;;6.03;4.88;;;-0.10;99.90;;;;;;4966739;28;89755;-28
2023/03/12 01:42:22;;;;;;;5.65;4.70;;;-0.10;99.90;;;;;;4981778;28;90532;-27
2023/03/12 01:44:57;;;;;;;6.43;5.13;;;-0.10;99.90;;;;;;4979844;28;89181;-30
2023/03/12 01:47:24;;;;;;;20.50;4.53;;;-0.10;99.90;;;;;;4980524;28;89915;-29
2023/03/12 01:49:51;;;;;;;4.57;3.75;;;-0.10;99.90;;;;;;4980737;28;90580;-27
2023/03/12 01:52:31;;;;;;;6.88;4.68;;;-0.10;99.90;;;;;;4961851;28;90067;-28
2023/03/12 01:55:00;;;;;;;6.85;4.35;;;-0.10;99.90;;;;;;4960762;28;89277;-32
2023/03/12 01:57:35;;;;;;;4.30;3.70;;;-0.10;99.90;;;;;;4961243;28;87673;-31
2023/03/12 02:00:07;;;;;;;6.20;4.35;;;-0.10;99.90;;;;;;4960586;28;90281;-32
2023/03/12 02:02:35;;;;;;;5.93;4.38;;;-0.10;99.90;;;;;;4961386;28;89326;-30
2023/03/12 02:05:21;;;;;;;4.57;3.47;;;0.00;99.90;;;;;;4960787;28;89277;-29
2023/03/12 02:07:46;;;;;;;6.65;4.53;;;0.00;99.90;;;;;;4960778;28;87752;-31
2023/03/12 02:10:12;;;;;;;5.70;5.22;;;0.00;99.90;;;;;;4973077;28;91898;-31
2023/03/12 02:12:38;;;;;;;10.43;4.13;;;0.10;99.90;;;;;;4961414;28;90436;-28
2023/03/12 02:15:04;;;;;;;4.45;4.05;;;0.10;99.90;;;;;;4943214;28;90513;-28
2023/03/12 02:17:30;;;;;;;5.32;3.88;;;0.10;99.90;;;;;;4961339;28;88941;-29
2023/03/12 02:20:16;;;;;;;24.98;4.95;;;0.10;99.90;;;;;;4980181;28;89637;-30
2023/03/12 02:22:48;;;;;;;4.82;3.92;;;0.20;99.90;;;;;;4979510;28;89702;-29
2023/03/12 02:25:46;;;;;;;3.50;3.05;;;0.20;99.90;;;;;;4980637;28;89590;-30
2023/03/12 02:28:14;;;;;;;5.93;3.97;;;0.20;99.90;;;;;;4978234;28;89317;-32
2023/03/12 02:30:43;;;;;;;4.03;3.42;;;0.30;99.90;;;;;;4970032;28;90362;-30
2023/03/12 02:33:10;;;;;;;3.08;2.75;;;0.30;99.90;;;;;;4964616;28;91018;-28
2023/03/12 02:35:36;;;;;;;5.25;4.05;;;0.30;99.90;;;;;;4960605;28;89230;-28
2023/03/12 02:38:02;;;;;;;5.47;4.95;;;0.30;99.90;;;;;;4960998;28;90560;-30
2023/03/12 02:40:33;;;;;;;6.07;4.03;;;0.40;99.90;;;;;;4970682;28;90238;-28
2023/03/12 02:43:00;;;;;;;4.65;3.55;;;0.40;99.90;;;;;;4963365;28;89463;-29
2023/03/12 02:45:28;;;;;;;4.25;3.85;;;0.40;99.90;;;;;;4971817;28;89944;-31
2023/03/12 02:47:54;;;;;;;4.05;3.72;;;0.40;99.90;;;;;;4961850;28;89956;-29
2023/03/12 02:50:20;;;;;;;6.95;4.88;;;0.40;99.90;;;;;;4961361;28;88997;-32
2023/03/12 02:52:45;;;;;;;4.95;4.38;;;0.40;99.90;;;;;;4961942;28;89934;-30
2023/03/12 02:55:11;;;;;;;4.88;3.35;;;0.40;99.90;;;;;;4961233;28;89490;-33
2023/03/12 02:57:37;;;;;;;5.13;4.63;;;0.30;99.90;;;;;;4961958;28;89712;-29
2023/03/12 03:00:13;;;;;;;5.15;2.92;;;0.30;99.90;;;;;;4959911;28;89758;-29
2023/03/12 03:02:39;;;;;;;6.40;3.63;;;0.30;99.90;;;;;;4961548;28;90786;-30
2023/03/12 03:05:05;;;;;;;5.70;3.50;;;0.30;99.90;;;;;;4961858;28;91411;-28
2023/03/12 03:07:31;;;;;;;7.97;4.85;;;0.30;99.90;;;;;;4962037;28;89099;-28
2023/03/12 03:10:02;;;;;;;5.30;4.70;;;0.20;99.90;;;;;;4961119;28;90498;-31
2023/03/12 03:12:32;;;;;;;5.90;4.38;;;0.20;99.90;;;;;;4961326;28;89245;-29
2023/03/12 03:14:58;;;;;;;5.72;3.92;;;0.20;99.90;;;;;;4960810;28;89618;-28
2023/03/12 03:17:24;;;;;;;9.00;4.47;;;0.20;99.90;;;;;;4961985;28;89840;-29
2023/03/12 03:19:50;;;;;;;5.05;3.80;;;0.20;99.90;;;;;;4960296;28;90567;-29
2023/03/12 03:22:17;;;;;;;9.95;5.47;;;0.20;99.90;;;;;;4964802;28;89706;-29
2023/03/12 03:24:42;;;;;;;5.25;4.82;;;0.20;99.90;;;;;;4978940;28;89686;-31
2023/03/12 03:27:08;;;;;;;9.15;4.72;;;0.20;99.90;;;;;;4979000;28;90617;-30
2023/03/12 03:29:34;;;;;;;5.10;4.53;;;0.20;99.90;;;;;;4966577;28;90236;-27
2023/03/12 03:31:59;;;;;;;5.38;4.45;;;0.20;99.90;;;;;;4979213;28;89589;-28
2023/03/12 03:34:25;;;;;;;6.32;5.05;;;0.20;99.90;;;;;;4979204;28;89698;-32
2023/03/12 03:36:50;;;;;;;7.30;5.50;;;0.20;99.90;;;;;;4960719;28;89087;-31
2023/03/12 03:39:16;;;;;;;6.97;5.88;;;0.20;99.90;;;;;;4978372;28;90437;-32
2023/03/12 03:41:42;;;;;;;12.98;5.97;;;0.20;99.90;;;;;;4963602;28;91696;-28
2023/03/12 03:44:09;;;;;;;9.45;5.60;;;0.20;99.90;;;;;;4965419;28;89433;-32
2023/03/12 03:46:34;;;;;;;7.30;6.57;;;0.20;99.90;;;;;;4969887;28;89126;-29
2023/03/12 03:49:00;;;;;;;9.90;5.88;;;0.20;99.90;;;;;;4957665;28;90299;-32
2023/03/12 03:51:26;;;;;;;6.85;4.97;;;0.20;99.90;;;;;;4958871;28;90890;-28
2023/03/12 03:53:52;;;;;;;7.93;5.63;;;0.30;99.90;;;;;;4959390;28;90058;-30
2023/03/12 03:56:18;;;;;;;7.85;6.13;;;0.20;99.90;;;;;;4973056;28;88914;-27
2023/03/12 03:58:43;;;;;;;8.82;6.93;;;0.30;99.90;;;;;;4960512;28;90342;-31
2023/03/12 04:01:12;;;;;;;8.35;6.55;;;0.30;99.90;;;;;;4970828;28;89683;-31
2023/03/12 04:03:37;;;;;;;7.88;6.57;;;0.20;99.90;;;;;;4960151;28;89335;-28
2023/03/12 04:06:05;;;;;;;7.43;6.72;;;0.30;99.90;;;;;;4959609;28;89412;-32
2023/03/12 04:08:31;;;;;;;9.77;7.22;;;0.30;99.90;;;;;;4959695;28;91751;-30
2023/03/12 04:10:57;;;;;;;13.32;6.65;;;0.30;99.90;;;;;;4959093;28;90242;-31
2023/03/12 04:13:23;;;;;;;9.07;5.93;;;0.30;99.90;;;;;;4971708;28;89249;-28
2023/03/12 04:15:51;;;;;;;11.43;7.13;;;0.30;99.90;;;;;;4965677;28;88676;-31
2023/03/12 04:18:16;;;;;;;7.63;6.93;;;0.30;99.90;;;;;;4958896;28;90201;-30
2023/03/12 04:20:43;;;;;;;7.50;5.88;;;0.30;99.90;;;;;;4977404;28;89587;-29
2023/03/12 04:23:09;;;;;;;7.65;6.80;;;0.30;99.90;;;;;;4978105;28;89916;-31
2023/03/12 04:25:34;;;;;;;8.13;7.03;;;0.30;99.90;;;;;;4972152;28;89268;-30
2023/03/12 04:28:00;;;;;;;10.23;7.18;;;0.30;99.90;;;;;;4958957;28;90180;-32
2023/03/12 04:30:26;;;;;;;9.25;6.85;;;0.30;99.90;;;;;;4966264;28;89194;-31
2023/03/12 04:32:53;;;;;;;14.38;6.70;;;0.30;99.90;;;;;;4946977;28;89182;-33
2023/03/12 04:35:19;;;;;;;8.15;6.03;;;0.30;99.90;;;;;;4966376;28;88562;-28
2023/03/12 04:37:44;;;;;;;14.95;7.28;;;0.30;99.90;;;;;;4964504;28;89842;-30
2023/03/12 04:40:11;;;;;;;6.85;6.15;;;0.30;99.90;;;;;;4959067;28;90493;-30
2023/03/12 04:42:36;;;;;;;8.98;6.22;;;0.40;99.90;;;;;;4971346;28;90248;-33
2023/03/12 04:45:05;;;;;;;10.13;7.40;;;0.40;99.90;;;;;;4966293;28;89241;-31
2023/03/12 04:47:32;;;;;;;8.75;7.35;;;0.40;99.90;;;;;;4963452;28;89863;-31
2023/03/12 04:49:57;;;;;;;8.90;7.50;;;0.40;99.90;;;;;;4958503;28;90908;-28
2023/03/12 04:52:23;;;;;;;8.57;7.10;;;0.40;99.90;;;;;;4969974;28;89536;-27
2023/03/12 04:54:49;;;;;;;10.02;8.98;;;0.40;99.90;;;;;;4976909;28;90365;-28
2023/03/12 04:57:15;;;;;;;10.27;8.00;;;0.40;99.90;;;;;;4977305;28;90353;-31
2023/03/12 04:59:41;;;;;;;10.27;8.80;;;0.50;99.90;;;;;;4977291;28;89920;-32
2023/03/12 05:02:06;;;;;;;10.07;8.35;;;0.50;99.90;;;;;;4981019;28;89324;-29
2023/03/12 05:04:32;;;;;;;11.40;8.48;;;0.50;99.90;;;;;;4980473;28;90126;-29
2023/03/12 05:06:58;;;;;;;11.23;8.63;;;0.50;99.90;;;;;;4980878;28;90181;-31
2023/03/12 05:09:23;;;;;;;11.88;8.30;;;0.50;99.90;;;;;;4979863;28;89533;-29
2023/03/12 05:11:49;;;;;;;12.60;8.55;;;0.50;99.90;;;;;;4981077;28;89443;-30
2023/03/12 05:14:14;;;;;;;9.75;7.97;;;0.50;99.90;;;;;;4980253;28;89104;-30
2023/03/12 05:16:40;;;;;;;14.20;9.65;;;0.50;99.90;;;;;;4980872;28;90318;-31
2023/03/12 05:19:06;;;;;;;14.32;8.88;;;0.50;99.90;;;;;;4980276;28;90615;-29
2023/03/12 05:21:32;;;;;;;11.25;9.32;;;0.50;99.90;;;;;;4980975;28;89664;-31
2023/03/12 05:23:58;;;;;;;11.73;9.48;;;0.50;99.90;;;;;;4963058;28;89175;-29
2023/03/12 05:26:26;;;;;;;12.15;8.23;;;0.50;99.90;;;;;;4961993;28;90235;-32
2023/03/12 05:28:52;;;;;;;15.30;10.32;;;0.50;99.90;;;;;;4960864;28;90490;-29
2023/03/12 05:31:18;;;;;;;11.48;9.75;;;0.60;99.90;;;;;;4962164;28;90055;-30
2023/03/12 05:33:44;;;;;;;12.93;9.63;;;0.60;99.90;;;;;;4981404;28;89044;-30
2023/03/12 05:36:11;;;;;;;14.73;10.10;;;0.60;99.90;;;;;;4965573;28;90159;-30
2023/03/12 05:38:37;;;;;;;21.90;9.20;;;0.60;99.90;;;;;;4961727;28;89842;-29
2023/03/12 05:41:04;;;;;;;11.00;9.35;;;0.60;99.90;;;;;;4961437;28;89830;-29
2023/03/12 05:43:30;;;;;;;12.18;9.15;;;0.60;99.90;;;;;;4961380;28;89287;-28
2023/03/12 05:46:02;;;;;;;17.95;10.52;;;0.60;99.90;;;;;;4974516;28;90283;-29
2023/03/12 05:48:29;;;;;;;15.55;9.93;;;0.60;99.90;;;;;;4970010;28;89911;-30
2023/03/12 05:50:55;;;;;;;12.27;10.63;;;0.60;99.90;;;;;;4964057;28;89715;-30
2023/03/12 05:53:22;;;;;;;11.00;9.00;;;0.70;99.90;;;;;;4960290;28;89165;-32
2023/03/12 05:55:48;;;;;;;10.88;9.38;;;0.60;99.90;;;;;;4960580;28;90062;-29
2023/03/12 05:58:13;;;;;;;10.55;9.45;;;0.60;99.90;;;;;;4981581;28;89582;-27
2023/03/12 06:00:40;;;;;;;12.10;8.73;;;0.70;99.90;;;;;;4966346;28;89541;-34
2023/03/12 06:03:07;;;;;;;11.73;8.55;;;0.70;99.90;;;;;;4968938;28;89050;-29
2023/03/12 06:05:34;;;;;;;10.68;9.32;;;0.70;99.90;;;;;;4966979;28;91321;-28
2023/03/12 06:08:00;;;;;;;10.35;8.15;;;0.70;99.90;;;;;;4960518;28;89749;-31
2023/03/12 06:10:25;;;;;;;9.80;8.80;;;0.70;99.90;;;;;;4974183;28;89334;-29
2023/03/12 06:12:51;;;;;;;9.02;8.07;;;0.80;99.90;;;;;;4961251;28;90353;-29
2023/03/12 06:15:17;;;;;;;13.48;8.82;;;0.80;99.90;;;;;;4961213;28;90018;-32
2023/03/12 06:17:42;;;;;;;28.05;10.45;;;0.90;99.90;;;;;;4960674;28;89674;-28
2023/03/12 06:20:09;;;;;;;11.05;9.95;;;0.90;99.90;;;;;;4942366;28;90449;-28
2023/03/12 06:22:34;;;;;;;9.73;8.57;;;0.90;99.90;;;;;;4960910;28;88590;-27
2023/03/12 06:25:00;;;;;;;14.23;8.77;;;0.90;99.90;;;;;;4961047;28;89437;-30
2023/03/12 06:27:26;;;;;;;12.73;8.48;;;1.00;99.90;;;;;;4970064;28;89553;-29
2023/03/12 06:29:51;;;;;;;9.95;8.32;;;1.10;99.90;;;;;;4967051;28;89607;-30
2023/03/12 06:32:17;;;;;;;11.90;9.00;;;1.10;99.90;;;;;;4979868;28;88275;-29
2023/03/12 06:34:43;;;;;;;12.00;10.65;;;1.10;99.90;;;;;;4966891;28;90000;-30
2023/03/12 06:37:10;;;;;;;10.07;9.05;;;1.10;99.90;;;;;;4970985;28;89768;-27
2023/03/12 06:39:37;;;;;;;10.00;8.27;;;1.20;99.90;;;;;;4975358;28;89805;-32
2023/03/12 06:42:03;;;;;;;19.02;9.63;;;1.20;99.90;;;;;;4979972;28;89688;-29
2023/03/12 06:44:29;;;;;;;10.90;9.73;;;1.20;99.90;;;;;;4978731;28;91687;-30
2023/03/12 06:46:55;;;;;;;10.02;8.98;;;1.20;99.90;;;;;;4979736;28;90215;-29
2023/03/12 06:49:21;;;;;;;10.15;9.15;;;1.20;99.90;;;;;;4978499;28;89775;-27
2023/03/12 06:51:46;;;;;;;16.38;9.20;;;1.20;99.90;;;;;;4942784;28;89322;-29
2023/03/12 06:54:12;;;;;;;11.75;9.68;;;1.30;99.90;;;;;;4961197;28;90843;-31
2023/03/12 06:56:39;;;;;;;11.65;7.60;;;1.30;99.90;;;;;;4972508;28;91294;-30
2023/03/12 06:59:05;;;;;;;11.13;9.05;;;1.30;99.90;;;;;;4942415;28;89339;-30
2023/03/12 07:01:31;;;;;;;13.55;9.90;;;1.30;99.90;;;;;;4960780;28;88041;-31
2023/03/12 07:03:56;;;;;;;12.73;9.15;;;1.40;99.90;;;;;;4959743;28;90610;-32
2023/03/12 07:06:23;;;;;;;13.63;9.75;;;1.40;99.90;;;;;;4942560;28;90436;-29
2023/03/12 07:08:48;;;;;;;12.70;9.70;;;1.40;99.90;;;;;;4960992;28;90022;-31
2023/03/12 07:11:14;;;;;;;13.02;9.13;;;1.40;99.90;;;;;;4960216;28;89015;-30
2023/03/12 07:13:40;;;;;;;12.35;8.90;;;1.40;99.90;;;;;;4959737;28;90483;-31
2023/03/12 07:16:07;;;;;;;14.18;9.82;;;1.40;99.90;;;;;;4960131;28;90731;-30
2023/03/12 07:18:33;;;;;;;14.68;10.60;;;1.50;99.90;;;;;;4960911;28;89377;-30
2023/03/12 07:20:59;;;;;;;10.95;8.63;;;1.60;99.90;;;;;;4968108;28;89799;-27
2023/03/12 07:23:24;;;;;;;9.88;8.85;;;1.60;99.90;;;;;;4964717;28;90017;-28
2023/03/12 07:25:50;;;;;;;13.27;10.82;;;1.60;99.90;;;;;;4959372;28;89641;-29
2023/03/12 07:28:17;;;;;;;18.52;9.55;;;1.60;99.90;;;;;;4959228;28;89582;-28
2023/03/12 07:30:49;;;;;;;10.35;9.13;;;1.60;99.90;;;;;;4968449;28;89217;-28
2023/03/12 07:33:16;;;;;;;18.42;10.52;;;1.50;99.90;;;;;;4978896;28;90208;-30
2023/03/12 07:35:41;;;;;;;17.00;9.95;;;1.50;99.90;;;;;;4967023;28;89559;-30
2023/03/12 07:38:08;;;;;;;10.20;9.18;;;1.50;99.90;;;;;;4975980;28;89416;-28
2023/03/12 07:40:34;;;;;;;12.23;9.82;;;1.50;99.90;;;;;;4978857;28;89253;-29
2023/03/12 07:43:00;;;;;;;11.00;9.98;;;1.50;99.90;;;;;;4977046;28;90897;-32
2023/03/12 07:45:26;;;;;;;14.60;9.90;;;1.50;99.90;;;;;;4959641;28;90157;-29
2023/03/12 07:47:52;;;;;;;11.00;8.88;;;1.50;99.90;;;;;;4975947;28;89628;-27
2023/03/12 07:50:17;;;;;;;12.07;9.70;;;1.50;99.90;;;;;;4969749;28;87788;-30
2023/03/12 07:52:43;;;;;;;14.25;10.57;;;1.50;99.90;;;;;;4973186;28;90217;-29
2023/03/12 07:55:10;;;;;;;12.75;8.55;;;1.60;99.90;;;;;;4978360;28;89843;-32
2023/03/12 07:57:36;;;;;;;11.93;9.48;;;1.50;99.90;;;;;;4976202;28;90126;-28
2023/03/12 08:00:04;;;;;;;9.75;8.70;;;1.60;99.90;;;;;;4966587;28;89836;-29
2023/03/12 08:02:31;;;;;;;17.85;9.95;;;1.50;99.90;;;;;;4976765;28;89208;-28
2023/03/12 08:04:57;;;;;;;13.20;10.13;;;1.50;99.90;;;;;;4978545;28;89820;-29
2023/03/12 08:07:23;;;;;;;11.38;9.73;;;1.60;99.90;;;;;;4975890;28;89422;-32
2023/03/12 08:09:48;;;;;;;12.30;9.00;;;1.60;99.90;;;;;;4977445;28;89510;-31
2023/03/12 08:12:14;;;;;;;11.57;9.90;;;1.60;99.90;;;;;;4968047;28;88490;-30
2023/03/12 08:14:40;;;;;;;11.52;9.77;;;1.60;99.90;;;;;;4977236;28;89893;-33
2023/03/12 08:17:05;;;;;;;18.33;11.73;;;1.60;99.90;;;;;;4977298;28;88821;-31
2023/03/12 08:19:31;;;;;;;13.13;10.63;;;1.60;99.90;;;;;;4977654;28;90023;-30
2023/03/12 08:21:57;;;;;;;11.07;9.85;;;1.60;99.90;;;;;;4975388;28;90589;-28
2023/03/12 08:24:23;;;;;;;13.57;10.75;;;1.60;99.90;;;;;;4977081;28;91728;-30
2023/03/12 08:26:48;;;;;;;14.55;11.75;;;1.60;99.90;;;;;;4976601;28;88246;-32
2023/03/12 08:29:15;;;;;;;13.55;10.43;;;1.60;99.90;;;;;;4978848;28;88682;-28
2023/03/12 08:31:41;;;;;;;15.27;11.50;;;1.60;99.90;;;;;;4976993;28;90219;-30
2023/03/12 08:34:06;;;;;;;11.52;10.32;;;1.70;99.90;;;;;;4979141;28;90166;-28
2023/03/12 08:36:32;;;;;;;12.05;9.63;;;1.70;99.90;;;;;;4981160;28;88783;-30
2023/03/12 08:38:57;;;;;;;11.65;9.73;;;1.60;99.90;;;;;;4982293;28;90049;-29
2023/03/12 08:41:23;;;;;;;14.05;10.43;;;1.60;99.90;;;;;;4982145;28;90264;-29
2023/03/12 08:43:49;;;;;;;12.45;10.18;;;1.60;99.90;;;;;;4980897;28;91370;-29
2023/03/12 08:46:14;;;;;;;23.63;13.15;;;1.60;99.90;;;;;;4976794;28;90346;-30
2023/03/12 08:48:40;;;;;;;14.10;11.20;;;1.60;99.90;;;;;;4961583;28;89916;-28
2023/03/12 08:51:06;;;;;;;11.75;10.60;;;1.60;99.90;;;;;;4961750;28;89937;-32
2023/03/12 08:53:35;;;;;;;20.38;10.48;;;1.60;99.90;;;;;;4961886;28;89395;-31
2023/03/12 08:56:02;;;;;;;20.85;11.07;;;1.50;99.90;;;;;;4976615;28;91302;-31
2023/03/12 08:58:27;;;;;;;14.00;10.18;;;1.50;99.90;;;;;;4971661;28;89367;-28
2023/03/12 09:00:54;;;;;;;10.82;9.27;;;1.50;99.90;;;;;;4976845;28;89958;-31
2023/03/12 09:03:20;;;;;;;20.52;10.18;;;1.50;99.90;;;;;;4978608;28;91106;-30
2023/03/12 09:05:47;;;;;;;11.65;10.45;;;1.60;99.90;;;;;;4975426;28;89503;-28
2023/03/12 09:08:13;;;;;;;10.35;9.25;;;1.60;99.90;;;;;;4961529;28;90363;-29
2023/03/12 09:10:39;;;;;;;18.73;10.25;;;1.60;99.90;;;;;;4974685;28;90426;-30
2023/03/12 09:13:06;;;;;;;12.63;9.15;;;1.70;99.90;;;;;;4978403;28;89790;-31
2023/03/12 09:15:32;;;;;;;13.35;10.38;;;1.70;99.90;;;;;;4975817;28;89472;-29
2023/03/12 09:17:58;;;;;;;16.42;9.73;;;1.70;99.90;;;;;;4978070;28;87683;-28
2023/03/12 09:20:24;;;;;;;12.93;9.95;;;1.60;99.90;;;;;;4975348;28;90084;-28
2023/03/12 09:22:50;;;;;;;12.18;10.45;;;1.60;99.90;;;;;;4978553;28;89745;-30
2023/03/12 09:25:16;;;;;;;17.10;11.82;;;1.50;99.90;;;;;;4974873;28;89117;-30
2023/03/12 09:27:44;;;;;;;12.85;9.25;;;1.60;99.90;;;;;;4978319;28;87927;-30
2023/03/12 09:30:16;;;;;;;14.10;10.73;;;1.60;99.90;;;;;;4967625;28;90346;-28
2023/03/12 09:32:45;;;;;;;15.75;11.50;;;1.50;99.90;;;;;;4979962;28;91590;-31
2023/03/12 09:35:12;;;;;;;11.88;10.52;;;1.60;99.90;;;;;;4979089;28;90097;-29
2023/03/12 09:37:37;;;;;;;12.02;10.75;;;1.60;99.90;;;;;;4974284;28;89560;-32
2023/03/12 09:40:07;;;;;;;11.35;9.30;;;1.60;99.90;;;;;;4967294;28;90435;-33
2023/03/12 09:42:50;;;;;;;12.57;10.18;;;1.70;99.90;;;;;;4977547;28;89639;-32
2023/03/12 09:45:22;;;;;;;15.57;11.10;;;1.70;99.90;;;;;;4964648;28;89298;-29
2023/03/12 09:47:51;;;;;;;14.55;11.18;;;1.80;99.90;;;;;;4967578;28;90009;-29
2023/03/12 09:50:27;;;;;;;24.13;12.93;;;1.80;99.90;;;;;;4964802;28;90307;-28
2023/03/12 09:52:56;;;;;;;15.90;12.35;;;1.80;99.90;;;;;;4973200;28;89656;-32
2023/03/12 09:55:23;;;;;;;25.77;12.52;;;1.80;99.90;;;;;;4962234;28;90310;-30
2023/03/12 09:57:50;;;;;;;13.88;12.02;;;1.90;99.90;;;;;;4971914;28;89250;-30
2023/03/12 10:00:34;;;;;;;16.17;11.95;;;1.90;99.90;;;;;;4969673;28;90203;-29
2023/03/12 10:03:12;;;;;;;17.38;12.10;;;1.90;99.90;;;;;;4962800;28;89914;-33
2023/03/12 10:06:02;;;;;;;12.60;11.23;;;1.90;99.90;;;;;;4963880;28;89598;-27
2023/03/12 10:08:49;;;;;;;15.20;12.02;;;1.90;99.90;;;;;;4962070;28;89047;-32
2023/03/12 10:11:27;;;;;;;17.27;13.48;;;1.90;99.90;;;;;;4962408;28;90072;-28
2023/03/12 10:14:05;;;;;;;13.73;11.80;;;1.90;99.90;;;;;;4974042;28;88471;-31
2023/03/12 10:17:05;;;;;;;16.20;11.98;;;1.90;99.90;;;;;;4961984;28;89543;-30
2023/03/12 10:19:57;;;;;;;15.80;11.95;;;2.00;99.90;;;;;;4961678;28;87591;-28
2023/03/12 10:22:35;;;;;;;12.18;10.95;;;2.00;99.90;;;;;;4969227;28;90252;-27
2023/03/12 10:25:26;;;;;;;17.55;11.25;;;1.90;99.90;;;;;;4966025;28;92619;-29
2023/03/12 10:27:56;;;;;;;14.00;11.20;;;2.00;99.90;;;;;;4962495;28;90485;-30
2023/03/12 10:30:25;;;;;;;20.50;13.05;;;2.00;99.90;;;;;;4960280;28;87632;-32
2023/03/12 10:32:57;;;;;;;18.27;12.18;;;2.00;99.90;;;;;;4959647;28;89460;-29
2023/03/12 10:35:25;;;;;;;15.30;11.77;;;2.00;99.90;;;;;;4960482;28;88926;-30
2023/03/12 10:38:02;;;;;;;12.35;10.95;;;2.00;99.90;;;;;;4959795;28;90641;-29
2023/03/12 10:40:35;;;;;;;14.45;11.73;;;2.10;99.90;;;;;;4969777;28;87607;-28
2023/03/12 10:43:02;;;;;;;14.70;12.40;;;2.10;99.90;;;;;;4961750;28;90202;-32
2023/03/12 10:46:28;;;;;;;14.02;11.45;;;2.10;99.90;;;;;;4971158;28;89179;-30
2023/03/12 10:49:22;;;;;;;13.40;11.50;;;2.10;99.90;;;;;;4860814;28;89747;-30
2023/03/12 10:51:59;;;;;;;13.07;11.63;;;2.10;99.90;;;;;;4859646;28;89198;-29
2023/03/12 10:54:39;;;;;;;16.75;14.65;;;2.20;99.90;;;;;;4948205;28;90499;-29
2023/03/12 10:57:06;;;;;;;21.80;14.52;;;2.30;99.90;;;;;;4959219;28;90163;-30
2023/03/12 10:59:35;;;;;;;13.65;12.23;;;2.30;99.90;;;;;;4965048;28;89566;-29
2023/03/12 11:02:22;;;;;;;15.48;12.60;;;2.40;99.90;;;;;;4966529;28;88491;-30
2023/03/12 11:04:52;;;;;;;15.25;12.00;;;2.50;99.90;;;;;;4965320;28;92421;-29
2023/03/12 11:07:26;;;;;;;16.08;12.88;;;2.50;99.90;;;;;;4970314;28;89757;-30
2023/03/12 11:10:07;;;;;;;16.20;13.90;;;2.50;99.90;;;;;;4965669;28;90150;-30
2023/03/12 11:12:35;;;;;;;17.08;13.52;;;2.50;99.90;;;;;;4962028;28;89347;-30
2023/03/12 11:15:21;;;;;;;15.50;12.85;;;2.50;99.90;;;;;;4967649;28;90352;-29
2023/03/12 11:17:46;;;;;;;18.30;12.10;;;2.50;99.90;;;;;;4964250;28;89576;-29
2023/03/12 11:20:28;;;;;;;15.48;12.52;;;2.60;99.90;;;;;;4960096;28;90132;-30
2023/03/12 11:22:54;;;;;;;17.02;14.13;;;2.70;99.90;;;;;;4967697;28;88929;-29
2023/03/12 11:25:26;;;;;;;17.15;13.38;;;2.70;99.90;;;;;;4968803;28;89810;-28
2023/03/12 11:27:55;;;;;;;16.02;12.07;;;2.70;99.90;;;;;;4967163;28;89522;-29
2023/03/12 11:30:31;;;;;;;22.45;14.45;;;2.70;99.90;;;;;;4958955;28;89064;-30
2023/03/12 11:32:57;;;;;;;15.73;12.57;;;2.80;99.90;;;;;;4959981;28;89976;-31
2023/03/12 11:35:46;;;;;;;20.10;13.30;;;2.90;99.90;;;;;;4970911;28;90233;-33
2023/03/12 11:38:19;;;;;;;18.05;14.25;;;2.90;99.90;;;;;;4959510;28;89899;-29
2023/03/12 11:40:52;;;;;;;17.35;13.82;;;2.90;99.90;;;;;;4959805;28;89621;-31
2023/03/12 11:43:42;;;;;;;16.08;12.70;;;2.90;99.90;;;;;;4966117;28;89689;-30
2023/03/12 11:46:33;;;;;;;16.83;12.32;;;2.90;99.90;;;;;;4961896;28;90583;-30
2023/03/12 11:49:25;;;;;;;18.23;12.98;;;2.90;99.90;;;;;;5001183;22;89693;-29
2023/03/12 11:52:00;;;;;;;16.58;13.60;;;3.00;99.90;;;;;;4977516;28;89182;-29
2023/03/12 11:54:52;;;;;;;22.15;13.95;;;3.00;99.90;;;;;;4976846;28;89347;-31
2023/03/12 11:57:38;;;;;;;20.65;13.85;;;3.10;99.90;;;;;;4968363;28;90419;-29
2023/03/12 12:00:16;;;;;;;19.67;13.52;;;3.20;99.90;;;;;;4963675;28;89725;-31
2023/03/12 12:03:17;;;;;;;24.90;14.45;;;3.30;99.90;;;;;;4971572;28;89873;-29
2023/03/12 12:06:24;;;;;;;19.08;15.82;;;3.40;99.90;;;;;;4976393;28;88409;-31
2023/03/12 12:09:08;;;;;;;17.17;13.13;;;3.50;99.90;;;;;;4957508;28;90681;-28
2023/03/12 12:12:08;;;;;;;15.02;13.15;;;3.60;99.90;;;;;;4965102;28;89526;-32
2023/03/12 12:14:58;;;;;;;20.35;13.43;;;3.70;99.90;;;;;;4966402;28;90640;-31
2023/03/12 12:17:32;;;;;;;20.70;13.60;;;3.80;99.90;;;;;;4965231;28;89395;-31
2023/03/12 12:20:33;;;;;;;18.05;14.63;;;3.80;99.90;;;;;;4975197;28;89125;-29
2023/03/12 12:23:15;;;;;;;13.57;12.15;;;3.80;99.90;;;;;;4965563;28;89232;-32
2023/03/12 12:25:59;;;;;;;15.40;12.00;;;3.80;99.90;;;;;;4963489;28;90058;-31
2023/03/12 12:28:24;;;;;;;13.90;11.13;;;3.80;99.90;;;;;;4961858;28;88986;-31
2023/03/12 12:31:18;;;;;;;13.10;11.23;;;3.90;99.90;;;;;;4977449;28;90305;-32
2023/03/12 12:34:25;;;;;;;16.77;11.27;;;4.00;99.90;;;;;;4968496;28;90473;-29
2023/03/12 12:37:20;;;;;;;17.33;12.00;;;4.10;99.90;;;;;;4865921;28;89604;-29
2023/03/12 12:40:03;;;;;;;15.70;13.05;;;4.20;99.90;;;;;;4951765;28;90623;-28
2023/03/12 12:42:33;;;;;;;16.77;11.32;;;4.30;99.90;;;;;;4970317;28;90829;-28
2023/03/12 12:45:01;;;;;;;18.38;12.07;;;4.40;99.90;;;;;;4974737;28;88652;-30
2023/03/12 12:47:59;;;;;;;13.13;10.98;;;4.50;99.90;;;;;;4974833;28;89672;-30
2023/03/12 12:50:31;;;;;;;18.83;11.35;;;4.60;99.90;;;;;;4961104;28;87723;-27
2023/03/12 12:53:13;;;;;;;15.43;10.23;;;4.70;99.90;;;;;;4959809;28;89789;-30
2023/03/12 12:56:04;;;;;;;15.75;12.05;;;4.80;99.90;;;;;;4968948;28;90244;-30
2023/03/12 12:58:56;;;;;;;17.88;12.27;;;4.90;99.90;;;;;;4965041;28;90446;-29